Time;durP1;ratioP1;P1;durP2;ratioP2;P2;SDS_P1;SDS_P2;PMS_P1;PMS_P2;Temp;Humidity;BMP_temperature;BMP_pressure;BME280_temperature;BME280_humidity;BME280_pressure;Samples;Min_cycle;Max_cycle;Signal;HPM_P1;HPM_P2
2022/07/30 00:01:05;;;;;;;5.35;4.57;;;;;;;25.49;51.84;94727.28;6240905;23;20180;-84
2022/07/30 00:03:33;;;;;;;5.93;4.20;;;;;;;25.46;52.73;94729.75;6240092;23;20172;-83
2022/07/30 00:06:00;;;;;;;8.30;4.53;;;;;;;25.47;52.23;94734.78;6240633;23;20789;-84
2022/07/30 00:08:27;;;;;;;5.28;4.03;;;;;;;25.44;52.52;94730.06;6241860;23;20181;-84
2022/07/30 00:10:54;;;;;;;4.60;4.18;;;;;;;25.38;52.02;94729.41;6242941;23;20197;-84
2022/07/30 00:13:22;;;;;;;6.95;4.60;;;;;;;25.29;52.13;94714.50;6241273;23;20652;-84
2022/07/30 00:15:49;;;;;;;6.57;4.35;;;;;;;25.33;52.48;94726.13;6241466;23;20185;-83
2022/07/30 00:18:15;;;;;;;6.85;4.30;;;;;;;25.25;53.27;94724.97;6242049;22;20170;-84
2022/07/30 00:20:42;;;;;;;5.25;4.30;;;;;;;25.31;53.31;94728.31;6240858;22;20607;-84
2022/07/30 00:23:09;;;;;;;4.85;4.25;;;;;;;25.29;53.17;94725.16;6238838;23;20632;-84
2022/07/30 00:25:36;;;;;;;4.70;4.28;;;;;;;25.31;53.45;94722.97;6241305;23;20166;-85
2022/07/30 00:28:03;;;;;;;8.02;4.32;;;;;;;25.29;52.99;94730.47;6241609;23;20197;-84
2022/07/30 00:30:31;;;;;;;5.57;4.05;;;;;;;25.29;52.52;94730.47;6240747;22;20197;-82
2022/07/30 00:32:59;;;;;;;5.70;4.07;;;;;;;25.26;52.96;94715.13;6241522;23;20171;-83
2022/07/30 00:35:25;;;;;;;6.60;3.97;;;;;;;25.27;52.35;94714.81;6240682;23;20177;-83
2022/07/30 00:37:52;;;;;;;4.40;4.00;;;;;;;25.32;52.77;94708.56;6240782;22;20177;-83
2022/07/30 00:40:19;;;;;;;5.97;4.22;;;;;;;25.25;52.69;94702.94;6240446;23;20196;-83
2022/07/30 00:42:48;;;;;;;5.70;4.10;;;;;;;25.34;52.77;94722.34;6240859;22;20165;-83
2022/07/30 00:45:18;;;;;;;4.20;3.83;;;;;;;25.37;52.68;94727.03;6241202;23;20228;-82
2022/07/30 00:47:46;;;;;;;6.57;4.20;;;;;;;25.26;53.02;94715.13;6240862;23;20154;-82
2022/07/30 00:50:15;;;;;;;7.75;4.38;;;;;;;25.22;52.87;94708.88;6241363;23;20193;-84
2022/07/30 00:52:42;;;;;;;8.40;4.50;;;;;;;25.13;53.26;94700.84;6241361;23;20212;-84
2022/07/30 00:55:12;;;;;;;4.55;4.10;;;;;;;25.23;53.46;94713.06;6241216;23;20173;-84
2022/07/30 00:57:39;;;;;;;7.88;3.92;;;;;;;25.14;54.46;94726.34;6241669;23;20176;-85
2022/07/30 01:00:09;;;;;;;6.95;5.38;;;;;;;24.80;56.29;94720.88;6241295;22;20176;-84
2022/07/30 01:02:36;;;;;;;5.82;5.22;;;;;;;24.28;58.78;94707.22;6241394;23;20293;-86
2022/07/30 01:05:05;;;;;;;8.93;5.32;;;;;;;24.17;59.72;94716.53;6242164;23;20252;-86
2022/07/30 01:07:31;;;;;;;7.70;5.38;;;;;;;24.06;60.59;94711.72;6242524;22;20188;-84
2022/07/30 01:09:58;;;;;;;9.07;5.88;;;;;;;24.09;60.34;94701.28;6242735;23;20193;-84
2022/07/30 01:12:27;;;;;;;9.88;5.97;;;;;;;24.01;61.11;94725.88;6241556;23;20879;-84
2022/07/30 01:14:56;;;;;;;10.40;6.38;;;;;;;23.80;62.09;94719.47;6241811;23;20170;-84
2022/07/30 01:17:23;;;;;;;7.90;6.30;;;;;;;23.47;63.79;94705.56;6266517;22;20169;-84
2022/07/30 01:19:52;;;;;;;7.38;6.20;;;;;;;23.52;63.97;94713.41;6272396;22;20161;-83
2022/07/30 01:22:39;;;;;;;7.35;5.50;;;;;;;23.51;63.75;94709.19;6271944;22;20244;-84
2022/07/30 01:25:14;;;;;;;9.75;6.22;;;;;;;23.62;63.87;94710.56;6271431;22;20156;-83
2022/07/30 01:27:45;;;;;;;7.68;6.25;;;;;;;23.70;63.68;94712.50;6272232;22;20192;-84
2022/07/30 01:30:14;;;;;;;10.07;6.35;;;;;;;23.74;64.13;94715.34;6271342;22;20352;-83
2022/07/30 01:32:43;;;;;;;8.98;6.55;;;;;;;23.65;64.13;94715.28;6271953;22;20161;-82
2022/07/30 01:35:13;;;;;;;8.30;5.93;;;;;;;23.53;64.54;94717.63;6271456;22;20703;-85
2022/07/30 01:37:41;;;;;;;8.50;6.97;;;;;;;23.47;64.89;94718.03;6270173;22;20248;-82
2022/07/30 01:40:09;;;;;;;8.13;6.25;;;;;;;23.44;65.18;94718.63;6271686;22;20191;-83
2022/07/30 01:42:38;;;;;;;9.05;6.85;;;;;;;23.44;65.22;94719.41;6271742;22;20781;-85
2022/07/30 01:45:08;;;;;;;7.22;6.05;;;;;;;23.45;64.98;94713.03;6272257;22;20168;-85
2022/07/30 01:47:38;;;;;;;9.88;5.70;;;;;;;23.45;64.43;94721.00;6272110;22;20165;-85
2022/07/30 01:50:12;;;;;;;8.88;5.80;;;;;;;23.43;65.23;94725.81;6271447;22;20173;-83
2022/07/30 01:52:41;;;;;;;10.73;6.45;;;;;;;23.18;66.51;94719.09;6271604;22;20184;-83
2022/07/30 01:55:10;;;;;;;7.95;6.00;;;;;;;22.96;67.74;94718.22;6271359;22;20172;-83
2022/07/30 01:57:38;;;;;;;9.30;6.40;;;;;;;22.97;67.82;94719.78;6271253;22;20533;-83
2022/07/30 02:00:08;;;;;;;6.90;6.20;;;;;;;22.95;68.05;94722.72;6272042;22;20248;-82
2022/07/30 02:02:37;;;;;;;9.52;6.63;;;;;;;22.97;68.02;94714.50;6270925;22;20165;-83
2022/07/30 02:05:05;;;;;;;9.00;6.53;;;;;;;22.99;67.76;94722.94;6271370;22;20544;-82
2022/07/30 02:07:37;;;;;;;8.40;7.22;;;;;;;23.02;68.31;94717.03;6271826;22;20158;-85
2022/07/30 02:10:11;;;;;;;13.82;7.28;;;;;;;23.00;67.93;94717.31;6272113;22;20157;-85
2022/07/30 02:12:42;;;;;;;11.82;7.60;;;;;;;22.95;68.78;94714.78;6270850;22;20164;-83
2022/07/30 02:15:17;;;;;;;10.70;6.82;;;;;;;22.81;69.21;94715.84;6271565;22;20156;-83
2022/07/30 02:17:50;;;;;;;11.65;7.00;;;;;;;22.71;70.37;94708.88;6271388;22;20160;-84
2022/07/30 02:20:17;;;;;;;10.73;7.47;;;;;;;22.65;70.65;94714.53;6271354;22;20215;-82
2022/07/30 02:22:47;;;;;;;9.05;7.60;;;;;;;22.63;71.08;94698.13;6271194;22;20172;-82
2022/07/30 02:25:17;;;;;;;9.35;7.20;;;;;;;22.61;71.51;94707.13;6271130;22;20180;-82
2022/07/30 02:27:47;;;;;;;7.85;7.00;;;;;;;22.66;71.26;94705.50;6271579;22;20480;-82
2022/07/30 02:30:16;;;;;;;11.63;7.38;;;;;;;22.65;71.59;94701.28;6270855;22;20238;-81
2022/07/30 02:32:44;;;;;;;12.57;7.68;;;;;;;22.47;71.72;94690.44;6270820;22;20176;-83
2022/07/30 02:35:17;;;;;;;9.30;7.70;;;;;;;22.51;72.17;94704.66;6271258;22;20234;-82
2022/07/30 02:37:46;;;;;;;8.98;7.25;;;;;;;22.48;72.45;94691.22;6271692;22;20153;-82
2022/07/30 02:40:16;;;;;;;10.13;7.53;;;;;;;22.46;72.11;94696.00;6270712;22;20219;-82
2022/07/30 02:42:46;;;;;;;9.68;7.43;;;;;;;22.45;72.14;94697.84;6271068;22;20190;-83
2022/07/30 02:45:16;;;;;;;10.07;7.57;;;;;;;22.44;72.36;94704.25;6271199;22;20180;-82
2022/07/30 02:47:44;;;;;;;11.07;7.18;;;;;;;22.38;73.31;94700.13;6271792;22;20554;-82
2022/07/30 02:50:13;;;;;;;11.15;6.88;;;;;;;22.35;72.76;94698.03;6269194;22;20165;-82
2022/07/30 02:52:41;;;;;;;10.18;7.25;;;;;;;22.32;72.89;94698.63;6268748;22;20168;-81
2022/07/30 02:55:11;;;;;;;11.63;7.57;;;;;;;22.34;72.90;94707.06;6270512;22;20164;-82
2022/07/30 02:57:41;;;;;;;17.73;7.32;;;;;;;22.32;72.54;94697.81;6271262;22;20169;-83
2022/07/30 03:00:10;;;;;;;13.38;7.25;;;;;;;22.25;72.68;94684.94;6271875;22;20229;-82
2022/07/30 03:02:40;;;;;;;11.60;7.10;;;;;;;22.25;72.29;94677.00;6272024;22;20161;-82
2022/07/30 03:05:08;;;;;;;12.35;7.43;;;;;;;22.25;72.40;94678.88;6271418;22;20165;-83
2022/07/30 03:07:36;;;;;;;9.90;6.85;;;;;;;22.27;73.31;94687.31;6271312;22;20164;-83
2022/07/30 03:10:04;;;;;;;11.65;7.15;;;;;;;22.30;73.25;94690.19;6271365;22;20171;-82
2022/07/30 03:12:33;;;;;;;12.27;7.65;;;;;;;22.30;72.81;94686.75;6271344;22;20193;-81
2022/07/30 03:15:00;;;;;;;11.50;7.32;;;;;;;22.17;72.40;94679.53;6271551;22;20168;-82
2022/07/30 03:17:31;;;;;;;14.75;7.20;;;;;;;22.14;72.71;94690.69;6270580;22;20165;-83
2022/07/30 03:20:01;;;;;;;9.27;7.10;;;;;;;22.11;72.02;94681.47;6270438;22;20157;-82
2022/07/30 03:22:29;;;;;;;14.70;6.82;;;;;;;22.10;72.28;94687.06;6270627;22;20889;-82
2022/07/30 03:24:58;;;;;;;10.32;6.50;;;;;;;22.04;72.73;94689.81;6270635;22;20511;-82
2022/07/30 03:27:25;;;;;;;10.35;6.93;;;;;;;22.02;72.76;94683.97;6269903;22;20207;-82
2022/07/30 03:29:55;;;;;;;8.30;6.70;;;;;;;22.07;73.39;94690.28;6270981;22;20631;-83
2022/07/30 03:32:23;;;;;;;11.55;6.93;;;;;;;22.06;72.77;94689.50;6271121;22;20193;-83
2022/07/30 03:34:51;;;;;;;13.07;7.05;;;;;;;22.02;73.57;94691.94;6270796;22;20176;-82
2022/07/30 03:37:20;;;;;;;15.68;7.60;;;;;;;22.04;73.41;94683.72;6271159;22;20173;-83
2022/07/30 03:39:47;;;;;;;20.08;8.63;;;;;;;22.11;73.79;94693.94;6271425;22;20627;-82
2022/07/30 03:42:16;;;;;;;20.23;8.38;;;;;;;22.05;74.30;94698.50;6273300;22;20203;-82
2022/07/30 03:44:45;;;;;;;13.35;8.43;;;;;;;22.04;74.51;94700.38;6273429;22;20173;-82
2022/07/30 03:47:14;;;;;;;23.38;8.60;;;;;;;22.01;74.47;94703.63;6273629;22;20243;-82
2022/07/30 03:49:41;;;;;;;13.35;8.02;;;;;;;21.97;74.62;94701.81;6274614;22;20169;-83
2022/07/30 03:52:09;;;;;;;18.27;7.78;;;;;;;21.97;75.22;94707.91;6274500;22;20214;-83
2022/07/30 03:54:38;;;;;;;16.90;7.57;;;;;;;22.10;74.91;94709.03;6273350;22;20171;-84
2022/07/30 03:57:05;;;;;;;16.83;7.90;;;;;;;22.14;74.08;94704.72;6274125;22;20252;-83
2022/07/30 03:59:33;;;;;;;8.02;6.78;;;;;;;22.08;73.48;94703.22;6274075;22;20211;-83
2022/07/30 04:02:01;;;;;;;8.30;6.60;;;;;;;22.11;73.46;94709.84;6274161;22;20176;-83
2022/07/30 04:04:29;;;;;;;9.98;7.45;;;;;;;22.09;73.38;94720.69;6273542;22;20852;-82
2022/07/30 04:06:56;;;;;;;13.15;7.45;;;;;;;22.05;74.36;94711.75;6272319;22;20203;-84
2022/07/30 04:09:24;;;;;;;11.50;6.85;;;;;;;21.94;74.48;94708.47;6272492;22;20161;-83
2022/07/30 04:11:52;;;;;;;10.90;6.97;;;;;;;22.01;74.38;94710.75;6273506;22;20663;-83
2022/07/30 04:14:19;;;;;;;10.40;6.90;;;;;;;21.90;74.52;94696.88;6273884;22;20165;-84
2022/07/30 04:16:50;;;;;;;10.85;7.22;;;;;;;22.01;74.81;94711.56;6273379;22;20184;-84
2022/07/30 04:19:22;;;;;;;14.50;7.82;;;;;;;21.87;74.81;94691.34;6272321;22;20157;-83
2022/07/30 04:21:51;;;;;;;10.00;7.43;;;;;;;22.02;75.09;94720.25;6272837;22;20157;-83
2022/07/30 04:24:19;;;;;;;12.02;8.23;;;;;;;22.02;75.69;94725.56;6272477;22;20165;-84
2022/07/30 04:26:48;;;;;;;13.60;8.50;;;;;;;22.09;74.90;94720.69;6272929;22;20204;-84
2022/07/30 04:29:16;;;;;;;12.52;7.65;;;;;;;21.97;75.03;94697.31;6273299;22;20192;-84
2022/07/30 04:31:44;;;;;;;14.25;8.32;;;;;;;22.12;74.78;94716.69;6273516;22;20389;-84
2022/07/30 04:34:13;;;;;;;10.85;8.15;;;;;;;22.19;75.04;94722.41;6273887;22;20169;-83
2022/07/30 04:36:40;;;;;;;11.82;8.20;;;;;;;22.21;74.67;94721.03;6273653;22;20302;-83
2022/07/30 04:39:07;;;;;;;11.30;7.80;;;;;;;22.25;73.80;94729.22;6273377;22;20165;-84
2022/07/30 04:41:34;;;;;;;13.20;6.97;;;;;;;22.22;74.30;94729.78;6274108;22;20165;-84
2022/07/30 04:44:01;;;;;;;11.10;7.75;;;;;;;22.03;74.98;94733.22;6273995;22;20164;-83
2022/07/30 04:46:29;;;;;;;11.43;7.20;;;;;;;;;;6273492;22;20180;-84
2022/07/30 04:48:56;;;;;;;10.57;7.47;;;;;;;21.91;75.17;94724.91;6273340;22;20168;-84
2022/07/30 04:51:25;;;;;;;10.32;6.88;;;;;;;21.93;75.07;94730.72;6273218;22;20195;-84
2022/07/30 04:53:54;;;;;;;9.90;6.60;;;;;;;21.85;75.42;94730.53;6274089;22;20168;-84
2022/07/30 04:56:22;;;;;;;10.35;7.15;;;;;;;21.87;75.33;94725.75;6274729;22;20173;-84
2022/07/30 04:58:50;;;;;;;11.77;7.00;;;;;;;21.97;75.17;94723.78;6273839;22;20173;-84
2022/07/30 05:01:22;;;;;;;10.43;6.82;;;;;;;21.97;74.54;94720.34;6273632;22;20248;-83
2022/07/30 05:03:52;;;;;;;10.73;6.80;;;;;;;21.95;74.54;94709.25;6273994;22;20161;-84
2022/07/30 05:06:20;;;;;;;8.75;7.07;;;;;;;22.09;74.15;94712.75;6273371;22;20188;-83
2022/07/30 05:08:47;;;;;;;14.27;6.78;;;;;;;22.06;73.71;94697.44;6273057;22;20171;-83
2022/07/30 05:11:15;;;;;;;9.73;7.07;;;;;;;22.18;73.90;94716.31;6272526;22;20717;-84
2022/07/30 05:13:42;;;;;;;12.00;7.72;;;;;;;22.17;74.03;94712.09;6272225;22;20165;-84
2022/07/30 05:16:10;;;;;;;10.38;7.35;;;;;;;22.22;74.40;94717.31;6272566;22;20515;-84
2022/07/30 05:18:37;;;;;;;13.75;7.63;;;;;;;22.17;74.53;94717.38;6271426;22;20161;-83
2022/07/30 05:21:05;;;;;;;12.00;7.75;;;;;;;22.20;74.22;94719.47;6270679;22;20169;-83
2022/07/30 05:23:33;;;;;;;11.30;7.68;;;;;;;22.22;75.10;94714.66;6271008;22;20176;-83
2022/07/30 05:26:00;;;;;;;10.55;7.10;;;;;;;22.18;74.86;94707.59;6272002;22;20255;-83
2022/07/30 05:28:27;;;;;;;12.07;7.30;;;;;;;22.33;74.60;94704.72;6271843;22;20208;-83
2022/07/30 05:30:54;;;;;;;11.25;7.47;;;;;;;22.38;74.31;94717.84;6271227;22;20185;-79
2022/07/30 05:33:21;;;;;;;10.10;7.47;;;;;;;22.43;73.66;94709.81;6271844;22;20196;-78
2022/07/30 05:35:49;;;;;;;11.23;7.40;;;;;;;22.53;73.14;94714.97;6271454;22;20223;-79
2022/07/30 05:38:18;;;;;;;14.32;7.30;;;;;;;22.56;73.37;94720.47;6270739;22;20169;-78
2022/07/30 05:40:45;;;;;;;13.55;7.70;;;;;;;22.60;72.58;94715.38;6271072;22;20640;-80
2022/07/30 05:43:12;;;;;;;11.82;7.50;;;;;;;22.69;72.30;94718.16;6271261;22;20226;-77
2022/07/30 05:45:39;;;;;;;11.50;7.50;;;;;;;22.72;72.28;94718.38;6270895;22;20165;-77
2022/07/30 05:48:06;;;;;;;13.23;7.85;;;;;;;22.78;72.05;94719.84;6271035;22;20173;-76
2022/07/30 05:50:33;;;;;;;12.07;7.90;;;;;;;22.80;71.69;94723.00;6271668;22;20497;-77
2022/07/30 05:53:00;;;;;;;14.23;7.53;;;;;;;22.82;71.86;94723.50;6271946;22;20192;-77
2022/07/30 05:55:28;;;;;;;12.07;7.72;;;;;;;22.86;71.76;94724.47;6271594;22;20172;-78
2022/07/30 05:57:54;;;;;;;10.57;7.25;;;;;;;22.94;70.84;94725.69;6271510;22;20204;-76
2022/07/30 06:00:21;;;;;;;17.27;7.50;;;;;;;22.98;70.59;94721.34;6271347;22;20648;-77
2022/07/30 06:02:48;;;;;;;9.75;7.20;;;;;;;23.02;70.91;94727.66;6271624;22;20169;-78
2022/07/30 06:05:15;;;;;;;12.07;7.30;;;;;;;23.05;70.93;94725.19;6270657;22;20180;-78
2022/07/30 06:07:42;;;;;;;11.27;6.80;;;;;;;23.08;70.57;94721.97;6271549;22;20639;-78
2022/07/30 06:10:09;;;;;;;10.38;6.57;;;;;;;23.08;69.60;94726.47;6272045;22;20235;-78
2022/07/30 06:12:37;;;;;;;13.48;6.90;;;;;;;23.15;69.49;94729.50;6271980;22;20196;-78
2022/07/30 06:15:05;;;;;;;17.00;7.45;;;;;;;23.27;69.43;94729.81;6272212;22;20177;-79
2022/07/30 06:17:32;;;;;;;12.20;7.43;;;;;;;23.34;69.03;94732.06;6272998;22;20169;-78
2022/07/30 06:20:00;;;;;;;10.10;7.35;;;;;;;23.39;68.67;94734.66;6273138;22;20487;-78
2022/07/30 06:22:26;;;;;;;12.43;7.22;;;;;;;23.38;68.98;94719.78;6272696;22;20191;-79
2022/07/30 06:24:53;;;;;;;13.20;7.20;;;;;;;23.47;69.45;94732.09;6270312;22;20172;-78
2022/07/30 06:27:20;;;;;;;10.30;6.57;;;;;;;23.62;68.30;94725.69;6270133;22;20504;-78
2022/07/30 06:29:48;;;;;;;9.70;6.70;;;;;;;23.64;67.98;94724.31;6270741;22;20176;-78
2022/07/30 06:32:16;;;;;;;11.30;6.85;;;;;;;23.63;67.39;94714.00;6270105;22;20192;-77
2022/07/30 06:34:43;;;;;;;11.38;6.93;;;;;;;23.69;67.76;94724.19;6269342;22;20251;-77
2022/07/30 06:37:10;;;;;;;8.50;6.70;;;;;;;23.69;67.32;94710.16;6271055;22;20491;-81
2022/07/30 06:39:37;;;;;;;15.70;6.97;;;;;;;23.85;67.48;94714.03;6271576;22;20685;-86
2022/07/30 06:42:04;;;;;;;9.65;7.18;;;;;;;24.02;66.61;94710.75;6271993;22;20165;-86
2022/07/30 06:44:31;;;;;;;8.18;6.40;;;;;;;24.09;65.60;94703.94;6273239;22;20220;-86
2022/07/30 06:47:00;;;;;;;10.32;6.72;;;;;;;24.20;66.16;94709.81;6272308;22;20164;-87
2022/07/30 06:49:26;;;;;;;8.82;6.30;;;;;;;24.26;65.71;94705.97;6269405;22;20613;-81
2022/07/30 06:51:53;;;;;;;14.88;6.07;;;;;;;24.37;70.54;94690.56;6272607;22;20200;-81
2022/07/30 06:54:20;;;;;;;7.80;5.68;;;;;;;24.60;67.98;94700.09;6270441;22;20173;-77
2022/07/30 06:56:47;;;;;;;9.15;5.65;;;;;;;24.73;64.07;94696.56;6269876;22;20663;-85
2022/07/30 06:59:14;;;;;;;8.07;5.53;;;;;;;24.91;64.91;94697.44;6271654;22;20953;-83
2022/07/30 07:01:41;;;;;;;8.48;6.25;;;;;;;25.00;63.03;94688.41;6272503;22;20196;-82
2022/07/30 07:04:09;;;;;;;12.80;6.40;;;;;;;25.07;63.66;94690.66;6273932;22;20283;-82
2022/07/30 07:06:36;;;;;;;11.35;6.30;;;;;;;25.13;62.62;94686.75;6271446;22;20169;-80
2022/07/30 07:09:04;;;;;;;13.68;5.60;;;;;;;25.29;66.98;94686.03;6271901;22;20169;-85
2022/07/30 07:11:31;;;;;;;12.18;5.82;;;;;;;25.54;65.06;94689.09;6272746;22;20220;-83
2022/07/30 07:13:57;;;;;;;9.90;5.70;;;;;;;25.72;62.99;94699.44;6273989;22;20172;-83
2022/07/30 07:16:24;;;;;;;12.02;5.50;;;;;;;25.81;61.82;94686.94;6272655;22;20550;-83
2022/07/30 07:18:52;;;;;;;6.97;6.13;;;;;;;25.87;58.89;94684.91;6271338;22;20165;-84
2022/07/30 07:21:20;;;;;;;9.57;5.97;;;;;;;25.87;59.38;94687.56;6271363;22;20222;-85
2022/07/30 07:23:48;;;;;;;10.43;5.60;;;;;;;25.97;62.02;94681.94;6244974;22;20168;-83
2022/07/30 07:26:15;;;;;;;13.75;6.25;;;;;;;26.07;60.41;94681.59;6272206;22;20631;-82
2022/07/30 07:28:42;;;;;;;9.30;5.50;;;;;;;26.10;58.26;94685.53;6272070;22;20279;-81
2022/07/30 07:31:11;;;;;;;13.68;6.18;;;;;;;26.24;63.43;94686.16;6269560;22;20176;-83
2022/07/30 07:33:39;;;;;;;15.93;6.28;;;;;;;26.44;63.44;94691.63;6272120;22;20271;-83
2022/07/30 07:36:06;;;;;;;12.65;6.20;;;;;;;26.57;61.10;94687.22;6272797;22;20161;-86
2022/07/30 07:38:35;;;;;;;26.73;7.15;;;;;;;26.69;57.70;94687.34;6272349;22;20169;-79
2022/07/30 07:41:02;;;;;;;96.35;11.55;;;;;;;26.67;57.55;94686.88;6270591;22;20169;-76
2022/07/30 07:43:29;;;;;;;24.10;6.82;;;;;;;26.59;57.28;94690.34;6267431;22;20176;-76
2022/07/30 07:45:56;;;;;;;16.95;6.72;;;;;;;26.58;56.77;94685.34;6268920;22;20169;-76
2022/07/30 07:48:23;;;;;;;7.63;6.25;;;;;;;26.63;57.98;94688.63;6268847;22;20177;-75
2022/07/30 07:50:49;;;;;;;8.68;6.57;;;;;;;26.69;57.56;94690.03;6268610;22;20231;-75
2022/07/30 07:53:16;;;;;;;11.05;6.40;;;;;;;26.72;57.06;94684.06;6271328;22;20534;-85
2022/07/30 07:55:45;;;;;;;8.38;6.47;;;;;;;26.76;55.82;94684.97;6272421;22;20240;-83
2022/07/30 07:58:12;;;;;;;11.13;7.00;;;;;;;26.75;57.10;94682.63;6272197;22;20180;-84
2022/07/30 08:00:39;;;;;;;7.32;6.53;;;;;;;26.77;56.52;94678.53;6270572;22;20519;-84
2022/07/30 08:03:06;;;;;;;9.10;6.15;;;;;;;26.61;57.60;94644.72;6271379;22;20172;-84
2022/07/30 08:05:33;;;;;;;10.00;6.22;;;;;;;26.84;59.71;94664.75;6271197;22;20168;-83
2022/07/30 08:08:00;;;;;;;9.32;5.65;;;;;;;27.04;56.40;94677.38;6270212;22;20185;-85
2022/07/30 08:10:27;;;;;;;8.18;5.78;;;;;;;27.13;60.50;94678.09;6271834;22;20173;-85
2022/07/30 08:12:55;;;;;;;6.40;5.55;;;;;;;27.25;56.03;94672.88;6271564;22;20197;-78
2022/07/30 08:15:23;;;;;;;9.75;5.60;;;;;;;27.32;56.16;94673.16;6270165;22;20168;-85
2022/07/30 08:17:50;;;;;;;8.43;6.40;;;;;;;27.32;54.58;94675.03;6270969;22;20173;-87
2022/07/30 08:20:16;;;;;;;11.73;6.70;;;;;;;27.29;55.09;94660.47;6271241;22;20171;-82
2022/07/30 08:22:43;;;;;;;7.80;6.20;;;;;;;27.40;53.27;94676.88;6268804;22;20526;-77
2022/07/30 08:25:11;;;;;;;8.85;6.10;;;;;;;27.43;52.56;94671.72;6268446;22;20169;-75
2022/07/30 08:27:38;;;;;;;10.38;6.50;;;;;;;27.48;52.26;94666.19;6270258;22;20200;-75
2022/07/30 08:30:08;;;;;;;13.23;5.95;;;;;;;27.51;53.08;94665.53;6271645;22;20160;-74
2022/07/30 08:32:36;;;;;;;18.13;6.13;;;;;;;27.63;55.83;94662.16;6271703;22;20212;-73
2022/07/30 08:35:03;;;;;;;10.38;6.78;;;;;;;27.69;51.54;94666.22;6272359;22;20169;-74
2022/07/30 08:37:30;;;;;;;9.20;5.68;;;;;;;27.69;54.81;94660.88;6271897;22;20165;-86
2022/07/30 08:39:57;;;;;;;10.02;5.70;;;;;;;27.86;56.69;94666.09;6273705;22;20172;-80
2022/07/30 08:42:25;;;;;;;10.43;5.38;;;;;;;27.92;55.73;94654.09;6273713;22;20165;-83
2022/07/30 08:44:53;;;;;;;8.88;5.63;;;;;;;28.01;52.69;94660.16;6272832;22;20168;-84
2022/07/30 08:47:25;;;;;;;8.02;5.85;;;;;;;28.09;53.60;94650.50;6274138;22;20169;-85
2022/07/30 08:49:54;;;;;;;11.43;5.75;;;;;;;28.03;51.94;94638.44;6273503;22;20161;-85
2022/07/30 08:52:22;;;;;;;8.52;5.72;;;;;;;28.46;51.31;94654.09;6272988;22;20196;-86
2022/07/30 08:54:48;;;;;;;18.38;6.13;;;;;;;28.76;50.24;94647.50;6272781;22;20169;-84
2022/07/30 08:57:16;;;;;;;12.35;5.57;;;;;;;28.94;50.04;94643.53;6271923;22;20165;-77
2022/07/30 08:59:43;;;;;;;6.90;5.65;;;;;;;29.14;49.49;94648.00;6270242;22;20679;-76
2022/07/30 09:02:10;;;;;;;10.32;5.57;;;;;;;29.22;47.25;94641.78;6272456;22;20180;-80
2022/07/30 09:04:38;;;;;;;7.35;5.60;;;;;;;29.41;47.41;94640.44;6273177;22;20165;-85
2022/07/30 09:07:05;;;;;;;6.88;5.95;;;;;;;29.49;45.67;94643.00;6272089;22;20168;-82
2022/07/30 09:09:32;;;;;;;6.00;5.40;;;;;;;29.47;45.26;94631.03;6274141;22;20164;-84
2022/07/30 09:11:59;;;;;;;6.18;5.57;;;;;;;29.55;45.95;94632.81;6273556;22;20172;-86
2022/07/30 09:14:26;;;;;;;8.23;5.60;;;;;;;29.68;47.17;94623.63;6272679;22;20543;-88
2022/07/30 09:16:57;;;;;;;6.22;5.63;;;;;;;29.88;46.77;94621.91;6272679;22;20687;-88
2022/07/30 09:19:25;;;;;;;8.27;5.75;;;;;;;30.01;44.96;94624.25;6274613;22;20176;-90
2022/07/30 09:21:58;;;;;;;7.57;5.70;;;;;;;30.15;44.80;94619.25;6282496;22;20169;-89
2022/07/30 09:24:26;;;;;;;8.18;5.95;;;;;;;30.31;45.36;94617.38;6273340;22;20166;-88
2022/07/30 09:26:55;;;;;;;8.13;6.05;;;;;;;30.47;44.23;94630.88;6272983;22;20175;-88
2022/07/30 09:29:24;;;;;;;9.85;6.30;;;;;;;30.39;44.05;94614.94;6271822;22;20279;-87
2022/07/30 09:31:56;;;;;;;9.43;5.72;;;;;;;30.34;44.36;94618.59;6272530;22;20169;-87
2022/07/30 09:34:25;;;;;;;7.85;5.97;;;;;;;30.53;44.06;94617.97;6272160;22;20192;-88
2022/07/30 09:36:52;;;;;;;8.38;5.18;;;;;;;30.72;43.40;94616.19;6271317;22;20169;-87
2022/07/30 09:39:30;;;;;;;9.57;5.90;;;;;;;30.87;42.21;94614.63;6272213;22;20193;-86
2022/07/30 09:41:58;;;;;;;8.80;6.28;;;;;;;30.82;42.16;94596.09;6272311;22;20164;-86
2022/07/30 09:44:26;;;;;;;8.32;5.93;;;;;;;30.91;42.75;94618.16;6273148;22;20576;-86
2022/07/30 09:46:54;;;;;;;9.38;6.30;;;;;;;31.06;42.33;94611.25;6273277;22;20281;-86
2022/07/30 09:49:22;;;;;;;7.43;5.53;;;;;;;30.86;42.08;94595.03;6272806;22;20189;-86
2022/07/30 09:51:49;;;;;;;7.70;6.10;;;;;;;30.83;43.46;94609.16;6273390;22;20511;-85
2022/07/30 09:54:16;;;;;;;7.03;5.93;;;;;;;31.01;42.25;94601.56;6273473;22;20189;-85
2022/07/30 09:56:45;;;;;;;8.70;6.05;;;;;;;31.17;43.02;94598.88;6273561;22;20165;-87
2022/07/30 09:59:26;;;;;;;7.43;6.32;;;;;;;31.41;41.65;94593.25;6273847;22;20189;-84
2022/07/30 10:01:54;;;;;;;8.60;6.15;;;;;;;31.63;41.96;94597.97;6273613;22;20168;-87
2022/07/30 10:04:25;;;;;;;8.63;6.22;;;;;;;31.87;41.40;94595.03;6273966;22;20165;-90
2022/07/30 10:06:52;;;;;;;10.07;6.50;;;;;;;32.11;39.78;94588.63;6274041;22;20235;-86
2022/07/30 10:09:27;;;;;;;10.57;6.45;;;;;;;32.22;39.49;94584.22;6275093;22;20509;-86
2022/07/30 10:11:56;;;;;;;7.97;6.70;;;;;;;32.29;38.58;94581.69;6276307;22;20168;-84
2022/07/30 10:14:25;;;;;;;7.22;5.63;;;;;;;32.26;39.33;94578.91;6275641;22;20188;-83
2022/07/30 10:16:52;;;;;;;7.30;6.30;;;;;;;32.33;39.11;94584.41;6273126;22;20207;-85
2022/07/30 10:19:20;;;;;;;6.65;5.70;;;;;;;32.49;38.38;94582.41;6273621;22;20172;-84
2022/07/30 10:21:48;;;;;;;7.45;5.45;;;;;;;32.60;38.17;94585.31;6273640;22;20175;-85
2022/07/30 10:24:17;;;;;;;7.60;5.70;;;;;;;32.78;38.01;94573.69;6273504;22;20557;-87
2022/07/30 10:26:45;;;;;;;10.32;5.53;;;;;;;32.94;37.11;94562.78;6273036;22;20639;-81
2022/07/30 10:29:16;;;;;;;7.93;5.88;;;;;;;33.15;37.15;94562.34;6272625;22;20208;-82
2022/07/30 10:31:43;;;;;;;6.20;5.60;;;;;;;33.18;36.82;94561.63;6273901;22;20227;-78
2022/07/30 10:34:10;;;;;;;7.38;6.07;;;;;;;33.27;36.56;94564.84;6274357;22;20197;-81
2022/07/30 10:36:40;;;;;;;7.43;5.70;;;;;;;33.30;35.96;94562.22;6270449;22;20758;-77
2022/07/30 10:39:10;;;;;;;8.20;6.00;;;;;;;33.34;36.31;94562.22;6272423;22;20168;-82
2022/07/30 10:41:48;;;;;;;11.40;6.57;;;;;;;33.38;36.81;94553.06;6273984;22;20179;-83
2022/07/30 10:44:51;;;;;;;6.72;6.03;;;;;;;33.51;36.12;94561.69;6273191;22;20149;-80
2022/07/30 10:47:20;;;;;;;6.93;6.22;;;;;;;33.74;36.73;94548.16;6274235;22;20153;-83
2022/07/30 10:50:11;;;;;;;12.23;6.85;;;;;;;33.82;35.46;94545.19;6274110;22;20188;-83
2022/07/30 10:52:45;;;;;;;8.13;6.03;;;;;;;33.54;35.50;94545.56;6274015;22;20157;-81
2022/07/30 10:55:15;;;;;;;8.48;6.25;;;;;;;33.34;36.53;94538.75;6274516;22;20170;-79
2022/07/30 10:58:06;;;;;;;7.85;6.47;;;;;;;33.60;36.22;94543.34;6271094;22;20168;-80
2022/07/30 11:00:36;;;;;;;6.88;5.88;;;;;;;33.89;36.25;94530.97;6270229;22;20153;-79
2022/07/30 11:03:22;;;;;;;11.18;6.68;;;;;;;34.30;35.15;94535.31;6270539;22;21046;-79
2022/07/30 11:05:51;;;;;;;8.77;6.32;;;;;;;34.09;34.94;94538.56;6270636;22;20188;-79
2022/07/30 11:08:38;;;;;;;7.63;6.03;;;;;;;33.81;35.78;94523.97;6269856;22;20418;-79
2022/07/30 11:11:26;;;;;;;6.88;6.28;;;;;;;33.98;34.74;94524.16;6270343;22;20164;-79
2022/07/30 11:13:56;;;;;;;7.05;6.30;;;;;;;34.37;34.63;94519.19;6269388;22;20314;-78
2022/07/30 11:16:47;;;;;;;10.85;6.60;;;;;;;34.63;33.95;94510.94;6269917;22;20179;-78
2022/07/30 11:19:16;;;;;;;7.30;6.57;;;;;;;34.71;34.76;94515.25;6271301;22;20702;-82
2022/07/30 11:21:45;;;;;;;7.35;6.60;;;;;;;34.71;33.97;94515.25;6269622;22;20530;-81
2022/07/30 11:24:43;;;;;;;9.75;6.28;;;;;;;34.92;33.91;94509.25;6269414;22;20244;-79
2022/07/30 11:27:10;;;;;;;8.55;6.30;;;;;;;35.10;33.31;94498.56;6270200;22;20172;-81
2022/07/30 11:29:39;;;;;;;8.82;6.82;;;;;;;35.24;33.22;94512.16;6269258;22;20626;-80
2022/07/30 11:32:28;;;;;;;11.43;6.78;;;;;;;35.38;33.17;94503.34;6270054;22;20180;-81
2022/07/30 11:35:16;;;;;;;8.23;7.15;;;;;;;35.44;32.91;94510.72;6270856;22;20176;-81
2022/07/30 11:38:05;;;;;;;10.48;6.30;;;;;;;35.58;32.68;94491.91;6269784;22;20240;-81